Flugplatz Sprossen

Für EDCH sind keine METAR/TAF Berichte vorhanden.
Es werden die Flugwettermeldungen vom Flugplatz Altenburg-Nobitz in 20 km Entfernung angezeigt.

Bericht für EDAC

vom 25.01. um 22:20 UTC

Wind 3 kt aus 190°

Sichtweite 500 m

Luftdruck 1020 hPa

EDAC 252220Z AUTO 19003KT 150V210 0500 R22/0800N // VV002 M03/// Q1020

Prognose für EDAC

vom 25.01. um 00:00 UTC

Am 25.01. zwischen 00:00 UTC und 00:00 UTC

Wind 4 kt aus 250°

Sichtweite 5000 m

feuchter Dunst

bedeckt in 700 ft


Am 25.01. zwischen 00:00 UTC und 00:00 UTC zeitweise mit einer Wahrscheinlichkeit von 30%

aufgelockert bewölkt in 700 ft


Am 25.01. zwischen 00:00 UTC und 00:00 UTC zeitweise

Sichtweite 3000 m

feuchter Dunst

bedeckt in 400 ft

TAF EDAC 251400Z 2515/2524 25004KT 5000 BR OVC007 TEMPO 2515/2524 3000 BR OVC004 PROB30 TEMPO 2515/2521 SCT007
Impressum